Time;durP1;ratioP1;P1;durP2;ratioP2;P2;SDS_P1;SDS_P2;PMS_P1;PMS_P2;Temp;Humidity;BMP_temperature;BMP_pressure;BME280_temperature;BME280_humidity;BME280_pressure;Samples;Min_cycle;Max_cycle;Signal;HPM_P1;HPM_P2
2024/01/03 00:09:24;;;;;;;16.00;11.50;;;;;;;2.95;100.00;97417.80;436067;1254;139190;-65
2024/01/03 00:19:30;;;;;;;13.40;12.00;;;;;;;2.94;100.00;97403.70;434646;1258;141240;-66
2024/01/03 00:29:53;;;;;;;15.30;13.60;;;;;;;2.94;100.00;97390.21;434259;1256;140355;-65
2024/01/03 00:40:00;;;;;;;16.10;11.50;;;;;;;2.93;100.00;97372.79;433752;1258;140565;-64
2024/01/03 00:50:08;;;;;;;13.80;12.00;;;;;;;2.93;100.00;97357.60;434082;1256;140381;-64
2024/01/03 01:00:16;;;;;;;15.10;12.20;;;;;;;2.92;100.00;97344.20;434515;1254;141299;-64
2024/01/03 01:10:22;;;;;;;15.50;13.20;;;;;;;2.92;100.00;97333.13;434472;1257;139170;-65
2024/01/03 01:20:28;;;;;;;17.50;12.40;;;;;;;2.92;100.00;97318.27;433485;1254;200131;-65
2024/01/03 01:30:34;;;;;;;14.90;13.30;;;;;;;2.92;100.00;97311.73;433785;1258;139843;-64
2024/01/03 01:40:40;;;;;;;13.90;12.00;;;;;;;2.92;100.00;97299.94;436028;1255;139238;-65
2024/01/03 01:50:47;;;;;;;16.40;14.40;;;;;;;2.94;100.00;97289.46;433726;1256;139526;-65
2024/01/03 02:00:53;;;;;;;13.10;11.70;;;;;;;2.95;100.00;97264.66;433701;1258;140233;-64
2024/01/03 02:10:59;;;;;;;14.00;12.20;;;;;;;2.96;100.00;97251.61;434779;1256;139775;-64
2024/01/03 02:21:10;;;;;;;16.20;14.40;;;;;;;2.98;100.00;97233.50;434070;1255;139492;-64
2024/01/03 02:31:15;;;;;;;14.40;11.60;;;;;;;3.01;100.00;97221.59;433490;1257;235323;-65
2024/01/03 02:41:21;;;;;;;11.90;10.70;;;;;;;3.03;100.00;97209.32;433538;1258;140186;-65
2024/01/03 02:51:27;;;;;;;9.20;8.40;;;;;;;3.07;100.00;97196.73;433449;1256;141635;-64
2024/01/03 03:01:34;;;;;;;10.60;8.80;;;;;;;3.13;100.00;97181.68;434904;1255;139639;-64
2024/01/03 03:11:39;;;;;;;9.30;8.40;;;;;;;3.19;100.00;97165.79;437259;1254;139969;-64
2024/01/03 03:21:45;;;;;;;8.90;7.90;;;;;;;3.25;100.00;97151.21;433465;1254;139757;-64
2024/01/03 03:31:51;;;;;;;7.80;7.00;;;;;;;3.29;100.00;97140.89;433560;1254;140092;-65
2024/01/03 03:41:57;;;;;;;7.10;6.50;;;;;;;3.33;100.00;97130.37;434091;1254;141664;-65
2024/01/03 03:52:04;;;;;;;6.80;6.00;;;;;;;3.39;100.00;97119.93;433810;1258;139387;-64
2024/01/03 04:02:10;;;;;;;5.70;5.20;;;;;;;3.45;100.00;97108.95;433939;1258;139354;-64
2024/01/03 04:12:16;;;;;;;5.20;4.70;;;;;;;3.49;100.00;97099.67;433295;1254;140591;-64
2024/01/03 04:22:22;;;;;;;3.90;3.60;;;;;;;3.55;100.00;97090.20;433480;1258;139596;-64
2024/01/03 04:32:28;;;;;;;4.70;4.00;;;;;;;3.61;100.00;97075.39;433449;1254;196517;-63
2024/01/03 04:42:35;;;;;;;4.30;4.00;;;;;;;3.67;100.00;97072.88;433525;1254;139933;-63
2024/01/03 04:52:41;;;;;;;4.70;4.20;;;;;;;3.73;100.00;97071.72;436004;1254;139518;-63
2024/01/03 05:02:46;;;;;;;11.80;10.40;;;;;;;3.79;100.00;97065.02;433434;1255;139149;-64
2024/01/03 05:12:53;;;;;;;7.40;6.60;;;;;;;3.86;100.00;97061.24;433689;1254;139646;-64
2024/01/03 05:22:59;;;;;;;6.90;6.30;;;;;;;3.93;100.00;97050.52;433460;1258;139699;-63
2024/01/03 05:33:05;;;;;;;5.60;5.20;;;;;;;3.99;100.00;97048.27;433423;1254;139818;-64
2024/01/03 05:43:12;;;;;;;5.90;5.20;;;;;;;4.05;100.00;97041.92;435599;1256;139178;-66
2024/01/03 05:53:19;;;;;;;6.90;6.20;;;;;;;4.13;100.00;97041.34;434154;1255;139187;-64
2024/01/03 06:03:25;;;;;;;5.30;4.80;;;;;;;4.20;100.00;97044.27;433576;1254;140158;-63
2024/01/03 06:13:31;;;;;;;5.80;5.30;;;;;;;4.26;100.00;97047.06;433658;1256;140602;-64
2024/01/03 06:23:37;;;;;;;7.60;6.80;;;;;;;4.32;100.00;97041.04;433479;1256;140932;-65
2024/01/03 06:33:43;;;;;;;5.70;5.20;;;;;;;4.37;100.00;97040.99;434255;1258;139434;-65
2024/01/03 06:43:49;;;;;;;6.80;5.90;;;;;;;4.44;100.00;97041.66;434764;1255;140506;-64
2024/01/03 06:53:55;;;;;;;3.30;3.10;;;;;;;4.55;100.00;97048.80;434740;1258;140318;-65
2024/01/03 07:04:03;;;;;;;6.10;5.60;;;;;;;4.64;100.00;97047.37;434656;1255;139040;-64
2024/01/03 07:14:12;;;;;;;3.30;3.00;;;;;;;4.76;100.00;97051.96;434655;1256;139656;-64
2024/01/03 07:24:18;;;;;;;7.80;5.80;;;;;;;4.88;100.00;97057.42;436039;1258;140311;-64
2024/01/03 07:34:25;;;;;;;4.00;3.60;;;;;;;4.98;100.00;97058.73;437573;1257;139790;-65
2024/01/03 07:44:35;;;;;;;;;;;;;;;5.07;100.00;97063.52;434351;1259;141914;-65
2024/01/03 07:54:41;;;;;;;7.50;4.50;;;;;;;5.23;100.00;97068.47;436917;1259;126015;-64
2024/01/03 08:04:47;;;;;;;3.10;2.80;;;;;;;5.44;100.00;97074.54;434073;1259;139604;-59
2024/01/03 08:14:53;;;;;;;3.10;2.80;;;;;;;5.64;100.00;97082.45;434189;1259;140710;-72
2024/01/03 08:24:59;;;;;;;4.30;2.50;;;;;;;6.01;100.00;97080.38;436062;1258;139455;-72
2024/01/03 08:35:05;;;;;;;2.60;2.20;;;;;;;6.27;100.00;97087.10;438387;1256;138837;-73
2024/01/03 08:45:11;;;;;;;2.90;2.10;;;;;;;6.37;100.00;97089.88;437675;1256;139818;-70
2024/01/03 08:55:18;;;;;;;4.30;2.20;;;;;;;6.47;100.00;97097.67;434303;1256;139020;-70
2024/01/03 09:05:24;;;;;;;1.70;1.40;;;;;;;6.67;100.00;97101.67;433940;1258;139354;-70
2024/01/03 09:15:30;;;;;;;2.30;1.80;;;;;;;6.94;100.00;97111.66;435998;1256;139257;-72
2024/01/03 09:25:37;;;;;;;2.00;1.40;;;;;;;7.13;100.00;97116.81;437480;1258;139511;-76
2024/01/03 09:35:42;;;;;;;1.30;1.20;;;;;;;7.54;100.00;97121.27;436267;1258;230733;-62
2024/01/03 09:45:49;;;;;;;5.10;1.60;;;;;;;7.86;100.00;97123.69;434107;1258;140759;-67
2024/01/03 09:55:55;;;;;;;2.90;1.90;;;;;;;7.87;100.00;97133.67;438022;1256;139048;-69
2024/01/03 10:06:11;;;;;;;3.80;1.40;;;;;;;7.81;100.00;97138.23;433801;1254;140735;-70
2024/01/03 10:16:29;;;;;;;1.90;1.70;;;;;;;8.00;100.00;97143.31;436232;1254;139086;-68
2024/01/03 10:26:35;;;;;;;3.30;1.40;;;;;;;8.15;100.00;97154.65;437135;1256;139254;-75
2024/01/03 10:36:41;;;;;;;1.80;1.10;;;;;;;8.23;100.00;97162.25;434231;1258;140662;-70
2024/01/03 10:46:48;;;;;;;1.50;0.80;;;;;;;8.67;100.00;97156.42;433627;1256;140028;-73
2024/01/03 10:56:54;;;;;;;2.10;1.00;;;;;;;8.88;100.00;97150.09;433464;1258;139886;-72
2024/01/03 11:07:09;;;;;;;4.00;2.00;;;;;;;8.97;100.00;97150.50;439759;1255;139482;-66
2024/01/03 11:17:15;;;;;;;3.00;1.90;;;;;;;8.78;100.00;97157.70;434572;1258;139409;-68
2024/01/03 11:27:25;;;;;;;2.50;1.40;;;;;;;8.49;100.00;97157.19;433455;1256;139435;-72
2024/01/03 11:37:38;;;;;;;6.00;3.60;;;;;;;8.27;100.00;97154.75;439281;1256;139986;-72
2024/01/03 11:47:45;;;;;;;3.40;2.40;;;;;;;8.15;100.00;97154.46;433364;1258;139322;-72
2024/01/03 11:57:52;;;;;;;4.10;2.30;;;;;;;7.96;100.00;97161.92;433533;1258;140097;-73
2024/01/03 12:07:58;;;;;;;3.40;1.70;;;;;;;7.86;100.00;97165.97;433532;1258;139873;-73
2024/01/03 12:18:09;;;;;;;3.50;1.20;;;;;;;7.80;100.00;97162.31;435412;1258;139327;-73
2024/01/03 12:28:20;;;;;;;3.30;1.70;;;;;;;7.85;100.00;97163.92;435169;1258;138981;-73
2024/01/03 12:38:26;;;;;;;3.40;1.80;;;;;;;7.88;100.00;97168.23;437151;1259;140128;-72
2024/01/03 12:48:32;;;;;;;10.70;5.10;;;;;;;7.81;100.00;97167.77;435386;1259;138604;-73
2024/01/03 12:58:38;;;;;;;2.80;1.50;;;;;;;7.80;100.00;97169.27;433567;1260;139042;-73
2024/01/03 13:08:44;;;;;;;7.00;4.30;;;;;;;7.76;100.00;97173.54;433556;1258;139216;-72
2024/01/03 13:18:50;;;;;;;5.50;2.80;;;;;;;7.70;100.00;97173.66;433875;1259;139865;-72
2024/01/03 13:28:57;;;;;;;3.40;2.00;;;;;;;7.68;100.00;97174.21;434286;1258;140155;-73
2024/01/03 13:39:02;;;;;;;3.50;1.70;;;;;;;7.77;100.00;97178.11;433921;1255;140031;-68
2024/01/03 13:49:09;;;;;;;3.70;2.00;;;;;;;7.80;100.00;97182.04;434001;1258;141348;-66
2024/01/03 13:59:15;;;;;;;3.90;1.80;;;;;;;7.77;100.00;97181.81;437222;1259;138913;-71
2024/01/03 14:09:21;;;;;;;4.50;3.00;;;;;;;7.73;100.00;97182.13;433594;1258;139092;-66
2024/01/03 14:19:27;;;;;;;6.20;4.70;;;;;;;7.65;100.00;97187.02;434213;1258;138738;-67
2024/01/03 14:29:33;;;;;;;6.60;3.80;;;;;;;7.56;100.00;97185.22;434041;1258;175993;-82
2024/01/03 14:39:41;;;;;;;11.10;5.30;;;;;;;7.51;100.00;97185.17;438944;1258;138883;-77
2024/01/03 14:49:47;;;;;;;7.50;4.40;;;;;;;7.46;100.00;97184.92;435267;1259;138947;-65
2024/01/03 14:59:53;;;;;;;9.10;5.90;;;;;;;7.33;100.00;97186.39;433963;1260;139234;-70
2024/01/03 15:09:59;;;;;;;6.50;4.00;;;;;;;7.25;100.00;97188.30;433874;1258;139259;-69
2024/01/03 15:20:07;;;;;;;7.50;4.20;;;;;;;7.17;100.00;97193.56;437358;1257;138826;-68
2024/01/03 15:30:16;;;;;;;7.90;4.30;;;;;;;6.96;100.00;97189.27;437333;1255;140509;-68
2024/01/03 15:40:24;;;;;;;3.90;2.40;;;;;;;6.72;100.00;97201.56;441466;1254;139819;-68
2024/01/03 15:50:30;;;;;;;3.90;2.20;;;;;;;6.63;100.00;97208.61;444925;1254;140328;-68
2024/01/03 16:00:36;;;;;;;5.20;2.90;;;;;;;6.67;100.00;97205.27;434273;1255;139778;-69
2024/01/03 16:10:43;;;;;;;5.30;1.10;;;;;;;6.59;100.00;97203.71;435869;1257;139449;-69
2024/01/03 16:20:48;;;;;;;1.50;1.40;;;;;;;6.40;100.00;97193.73;435542;1254;139026;-69
2024/01/03 16:30:55;;;;;;;4.30;1.50;;;;;;;6.26;100.00;97188.98;433829;1260;139597;-67
2024/01/03 16:41:01;;;;;;;6.60;2.20;;;;;;;6.06;100.00;97192.54;434017;1257;138964;-71
2024/01/03 16:51:07;;;;;;;14.10;6.00;;;;;;;5.85;100.00;97200.31;433985;1254;139510;-72
2024/01/03 17:01:14;;;;;;;9.50;4.20;;;;;;;5.66;100.00;97196.30;433728;1259;139367;-66
2024/01/03 17:11:27;;;;;;;13.40;6.90;;;;;;;5.45;100.00;97199.71;435296;1254;139701;-69
2024/01/03 17:21:33;;;;;;;11.00;6.80;;;;;;;5.51;100.00;97203.46;438044;1259;140434;-64
2024/01/03 17:31:38;;;;;;;9.60;5.20;;;;;;;5.70;100.00;97195.60;434003;1254;138997;-68
2024/01/03 17:41:45;;;;;;;19.90;10.80;;;;;;;5.84;100.00;97191.03;433647;1254;139292;-62
2024/01/03 17:51:51;;;;;;;8.10;6.20;;;;;;;5.97;100.00;97187.36;433598;1256;139445;-70
2024/01/03 18:01:57;;;;;;;6.10;4.20;;;;;;;6.06;100.00;97188.39;433676;1254;139763;-67
2024/01/03 18:12:04;;;;;;;18.00;11.20;;;;;;;6.09;100.00;97182.23;433900;1254;140133;-75
2024/01/03 18:22:11;;;;;;;14.40;7.40;;;;;;;6.09;100.00;97174.89;436428;1258;140369;-74
2024/01/03 18:32:17;;;;;;;17.50;9.90;;;;;;;6.08;100.00;97171.54;433891;1254;139352;-72
2024/01/03 18:42:23;;;;;;;10.60;7.60;;;;;;;6.06;100.00;97169.98;437814;1254;139177;-75
2024/01/03 18:52:29;;;;;;;11.90;7.50;;;;;;;6.05;100.00;97166.25;436690;1258;139694;-73
2024/01/03 19:02:35;;;;;;;10.90;6.60;;;;;;;6.04;100.00;97162.13;433778;1254;139639;-74
2024/01/03 19:12:41;;;;;;;9.50;5.40;;;;;;;6.01;100.00;97152.44;434102;1258;141027;-73
2024/01/03 19:22:47;;;;;;;24.40;13.70;;;;;;;5.99;100.00;97148.59;436539;1256;140255;-71
2024/01/03 19:32:53;;;;;;;6.20;4.40;;;;;;;5.99;100.00;97147.05;433988;1258;141151;-73
2024/01/03 19:42:59;;;;;;;11.20;7.20;;;;;;;5.95;100.00;97145.14;434374;1254;139563;-74
2024/01/03 19:53:08;;;;;;;11.70;6.30;;;;;;;5.86;100.00;97149.36;434320;1257;140776;-73
2024/01/03 20:03:14;;;;;;;9.30;5.10;;;;;;;5.84;100.00;97156.30;438490;1254;140565;-73
2024/01/03 20:13:21;;;;;;;11.70;6.70;;;;;;;5.84;100.00;97157.38;434105;1255;139937;-74
2024/01/03 20:23:27;;;;;;;11.90;7.10;;;;;;;5.82;100.00;97162.59;433764;1254;140892;-75
2024/01/03 20:33:36;;;;;;;9.90;5.10;;;;;;;5.79;100.00;97171.81;433861;1254;139993;-74
2024/01/03 20:43:43;;;;;;;8.60;4.80;;;;;;;5.82;100.00;97183.39;442908;1254;140338;-73
2024/01/03 20:53:50;;;;;;;6.40;3.40;;;;;;;5.83;100.00;97180.83;434155;1257;138888;-73
2024/01/03 21:03:57;;;;;;;3.60;2.40;;;;;;;5.87;100.00;97186.27;434679;1256;139258;-74
2024/01/03 21:14:06;;;;;;;1.90;1.20;;;;;;;5.88;100.00;97183.92;434318;1255;139194;-72
2024/01/03 21:24:12;;;;;;;1.70;1.40;;;;;;;5.86;100.00;97186.63;434180;1254;138876;-75
2024/01/03 21:34:19;;;;;;;4.50;1.40;;;;;;;5.86;100.00;97188.11;435193;1255;140335;-73
2024/01/03 21:44:25;;;;;;;3.60;2.00;;;;;;;5.88;100.00;97188.77;439415;1257;140015;-74
2024/01/03 21:54:32;;;;;;;6.60;4.30;;;;;;;5.86;100.00;97184.73;435036;1254;138866;-74
2024/01/03 22:04:38;;;;;;;7.90;5.60;;;;;;;5.77;100.00;97177.67;438307;1255;139734;-73
2024/01/03 22:14:45;;;;;;;5.00;3.30;;;;;;;5.73;100.00;97176.49;435766;1254;139064;-74
2024/01/03 22:24:52;;;;;;;6.60;4.90;;;;;;;5.71;100.00;97165.30;435366;1255;139196;-74
2024/01/03 22:34:58;;;;;;;4.50;3.00;;;;;;;5.68;100.00;97172.34;440125;1255;140298;-74
2024/01/03 22:45:07;;;;;;;4.60;3.40;;;;;;;5.69;100.00;97165.39;442761;1255;140268;-74
2024/01/03 22:55:13;;;;;;;5.30;3.40;;;;;;;5.68;100.00;97173.43;440195;1254;139272;-68
2024/01/03 23:05:19;;;;;;;2.80;2.20;;;;;;;5.68;100.00;97166.82;434905;1255;138826;-66
2024/01/03 23:15:26;;;;;;;2.80;1.80;;;;;;;5.71;100.00;97167.98;435912;1254;139919;-67
2024/01/03 23:25:32;;;;;;;2.80;1.80;;;;;;;5.74;100.00;97167.87;436096;1258;140280;-67
2024/01/03 23:35:40;;;;;;;5.80;4.60;;;;;;;5.73;100.00;97168.11;434837;1256;140228;-66
2024/01/03 23:45:47;;;;;;;2.80;2.20;;;;;;;5.70;100.00;97164.88;434594;1256;139610;-67
2024/01/03 23:55:53;;;;;;;18.90;14.70;;;;;;;5.67;100.00;97154.91;437329;1255;140570;-67
